RYR242N EDDH-EDHL
Flight info
| Callsign | RYR242N |
|---|---|
| Flight time | N/A |
| Altitude | 12000 |
| Route | AMLUH2G/33 AMLUH DCT NOLGO NOLGO2R |
| Aircraft | B738/M-SDE2E3FGHIRWXY/LB1 |
Departure
| Time | 2026-04-23 18:21 |
|---|---|
| Airport | Hamburg Helmut Schmidt Airport (EDDH) |
Arrival
| Time | N/A |
|---|---|
| Airport | Lübeck Blankensee Airport (EDHL) |
| Time | Latitude | Longitude | Altitude | Speed | Heading |
|---|---|---|---|---|---|
| 2026-04-23 17:45 | 53.62932 | 10.00274 | 61 ft | 0 kts | 107° |
| 2026-04-23 17:46 | 53.63316 | 10.00027 | 61 ft | 0 kts | 142° |
| 2026-04-23 17:46 | 53.63245 | 9.99878 | 61 ft | 0 kts | 141° |
| 2026-04-23 18:15 | 53.63248 | 9.99875 | 61 ft | 2 kts | 141° |
| 2026-04-23 18:15 | 53.63259 | 9.99860 | 61 ft | 2 kts | 141° |
| 2026-04-23 18:15 | 53.63270 | 9.99845 | 61 ft | 2 kts | 141° |
| 2026-04-23 18:15 | 53.63280 | 9.99831 | 61 ft | 2 kts | 141° |
| 2026-04-23 18:16 | 53.63291 | 9.99817 | 61 ft | 2 kts | 141° |
| 2026-04-23 18:16 | 53.63299 | 9.99806 | 61 ft | 1 kts | 174° |
| 2026-04-23 18:16 | 53.63308 | 9.99810 | 61 ft | 0 kts | 223° |
| 2026-04-23 18:17 | 53.63313 | 9.99820 | 61 ft | 0 kts | 230° |
| 2026-04-23 18:18 | 53.63297 | 9.99787 | 61 ft | 11 kts | 231° |
| 2026-04-23 18:18 | 53.63224 | 9.99767 | 61 ft | 14 kts | 158° |
| 2026-04-23 18:18 | 53.63116 | 9.99855 | 61 ft | 23 kts | 153° |
| 2026-04-23 18:19 | 53.62980 | 9.99972 | 61 ft | 19 kts | 153° |
| 2026-04-23 18:19 | 53.62900 | 9.99921 | 61 ft | 11 kts | 244° |
| 2026-04-23 18:19 | 53.62893 | 9.99894 | 61 ft | 1 kts | 244° |
| 2026-04-23 18:19 | 53.62890 | 9.99884 | 61 ft | 0 kts | 243° |
| 2026-04-23 18:20 | 53.62867 | 9.99751 | 61 ft | 13 kts | 308° |
| 2026-04-23 18:20 | 53.62911 | 9.99707 | 61 ft | 1 kts | 331° |
| 2026-04-23 18:20 | 53.62915 | 9.99703 | 61 ft | 0 kts | 331° |
| 2026-04-23 18:20 | 53.62922 | 9.99696 | 61 ft | 2 kts | 331° |
| 2026-04-23 18:21 | 53.63026 | 9.99608 | 61 ft | 48 kts | 333° |
| 2026-04-23 18:21 | 53.63636 | 9.99085 | 62 ft | 142 kts | 333° |
| 2026-04-23 18:21 | 53.64647 | 9.98217 | 640 ft | 172 kts | 333° |
| 2026-04-23 18:21 | 53.65695 | 9.97349 | 1391 ft | 178 kts | 334° |
| 2026-04-23 18:22 | 53.66975 | 9.96319 | 1739 ft | 224 kts | 335° |
| 2026-04-23 18:22 | 53.68385 | 9.95234 | 2997 ft | 233 kts | 336° |
| 2026-04-23 18:22 | 53.69918 | 9.94668 | 4224 ft | 239 kts | 2° |
| 2026-04-23 18:22 | 53.71450 | 9.94789 | 4880 ft | 226 kts | 4° |
| 2026-04-23 18:23 | 53.72477 | 9.95243 | 4661 ft | 230 kts | 28° |
| 2026-04-23 18:23 | 53.74024 | 10.00396 | 4738 ft | 224 kts | 81° |
| 2026-04-23 18:24 | 53.73697 | 10.05914 | 4850 ft | 271 kts | 121° |
| 2026-04-23 18:24 | 53.72635 | 10.08516 | 4802 ft | 274 kts | 122° |
| 2026-04-23 18:24 | 53.71714 | 10.11112 | 6117 ft | 274 kts | 120° |
| 2026-04-23 18:25 | 53.69879 | 10.16758 | 8221 ft | 301 kts | 116° |
| 2026-04-23 18:25 | 53.69493 | 10.20309 | 7934 ft | 310 kts | 87° |
| 2026-04-23 18:25 | 53.69700 | 10.23786 | 7950 ft | 293 kts | 83° |
| 2026-04-23 18:25 | 53.69916 | 10.27070 | 7846 ft | 281 kts | 83° |
| 2026-04-23 18:26 | 53.70130 | 10.30299 | 7725 ft | 273 kts | 83° |
| 2026-04-23 18:26 | 53.70339 | 10.33446 | 7740 ft | 274 kts | 83° |
| 2026-04-23 18:26 | 53.70549 | 10.36621 | 7737 ft | 276 kts | 83° |
| 2026-04-23 18:26 | 53.70763 | 10.39871 | 7345 ft | 278 kts | 83° |
| 2026-04-23 18:27 | 53.70975 | 10.43087 | 7048 ft | 274 kts | 83° |
| 2026-04-23 18:27 | 53.71183 | 10.46247 | 6704 ft | 273 kts | 83° |
| 2026-04-23 18:27 | 53.71392 | 10.49422 | 6366 ft | 272 kts | 83° |
| 2026-04-23 18:27 | 53.71599 | 10.52581 | 6039 ft | 271 kts | 83° |